createdAt,value
2017-12-24T00:01:45.409Z,2.10
2017-12-24T00:04:13.182Z,2.17
2017-12-24T00:06:40.910Z,2.17
2017-12-24T00:09:08.631Z,2.20
2017-12-24T00:11:37.143Z,1.90
2017-12-24T00:14:04.886Z,1.90
2017-12-24T00:16:32.683Z,1.97
2017-12-24T00:19:00.364Z,2.10
2017-12-24T00:21:28.820Z,2.10
2017-12-24T00:23:56.553Z,2.60
2017-12-24T00:26:24.289Z,2.10
2017-12-24T00:28:52.733Z,2.00
2017-12-24T00:31:20.419Z,2.30
2017-12-24T00:33:48.158Z,1.90
2017-12-24T00:36:15.846Z,2.30
2017-12-24T00:38:43.505Z,2.13
2017-12-24T00:41:11.322Z,2.13
2017-12-24T00:43:39.071Z,1.87
2017-12-24T00:46:07.704Z,2.13
2017-12-24T00:48:35.450Z,2.10
2017-12-24T00:51:03.199Z,1.83
2017-12-24T00:53:31.069Z,2.00
2017-12-24T00:55:58.775Z,1.90
2017-12-24T00:58:26.538Z,1.90
2017-12-24T01:00:54.199Z,1.80
2017-12-24T01:03:22.754Z,1.80
2017-12-24T01:05:50.445Z,2.03
2017-12-24T01:08:19.039Z,1.93
2017-12-24T01:10:46.765Z,1.80
2017-12-24T01:13:14.484Z,1.90
2017-12-24T01:15:42.339Z,2.10
2017-12-24T01:18:10.034Z,1.80
2017-12-24T01:20:38.335Z,2.10
2017-12-24T01:23:06.108Z,1.93
2017-12-24T01:25:33.889Z,1.77
2017-12-24T01:28:01.739Z,2.10
2017-12-24T01:30:30.201Z,1.90
2017-12-24T01:32:57.985Z,2.00
2017-12-24T01:35:26.491Z,1.83
2017-12-24T01:37:54.307Z,2.10
2017-12-24T01:40:22.083Z,2.00
2017-12-24T01:42:49.813Z,742.97
2017-12-24T01:45:18.289Z,733.90
2017-12-24T01:47:52.071Z,736.40
2017-12-24T01:50:19.931Z,743.87
2017-12-24T01:52:47.697Z,718.47
2017-12-24T01:55:15.402Z,692.73
2017-12-24T01:57:43.145Z,709.07
2017-12-24T02:00:11.764Z,713.03
2017-12-24T02:02:39.607Z,724.10
2017-12-24T02:05:08.178Z,696.30
2017-12-24T02:07:35.845Z,675.37
2017-12-24T02:10:03.532Z,693.03
2017-12-24T02:12:31.405Z,692.67
2017-12-24T02:14:59.241Z,997.97
2017-12-24T02:17:27.721Z,695.53
2017-12-24T02:19:55.441Z,689.90
2017-12-24T02:22:23.117Z,694.43
2017-12-24T02:24:50.855Z,703.23
2017-12-24T02:27:18.661Z,700.27
2017-12-24T02:29:46.459Z,702.97
2017-12-24T02:32:14.159Z,698.77
2017-12-24T02:34:41.973Z,696.60
2017-12-24T02:37:10.657Z,683.17
2017-12-24T02:39:38.370Z,689.60
2017-12-24T02:42:06.162Z,702.70
2017-12-24T02:44:33.925Z,684.40
2017-12-24T02:47:01.670Z,691.67
2017-12-24T02:49:29.434Z,686.67
2017-12-24T02:51:57.217Z,690.03
2017-12-24T02:54:25.769Z,704.77
2017-12-24T02:56:53.607Z,695.60
2017-12-24T02:59:21.281Z,713.00
2017-12-24T03:01:48.979Z,700.77
2017-12-24T03:04:16.785Z,706.90
2017-12-24T03:06:45.342Z,704.63
2017-12-24T03:09:13.105Z,701.60
2017-12-24T03:11:40.784Z,704.70
2017-12-24T03:14:09.355Z,692.97
2017-12-24T03:16:37.052Z,710.87
2017-12-24T03:19:04.902Z,712.97
2017-12-24T03:21:32.759Z,704.13
2017-12-24T03:24:00.573Z,700.67
2017-12-24T03:26:28.451Z,695.33
2017-12-24T03:28:56.921Z,693.90
2017-12-24T03:31:25.324Z,704.07
2017-12-24T03:33:53.206Z,710.27
2017-12-24T03:36:22.216Z,710.17
2017-12-24T03:38:50.160Z,709.53
2017-12-24T03:41:17.950Z,710.43
2017-12-24T03:43:46.525Z,721.27
2017-12-24T03:46:14.259Z,701.23
2017-12-24T03:48:42.719Z,693.47
2017-12-24T03:51:10.399Z,708.53
2017-12-24T03:53:38.167Z,709.73
2017-12-24T03:56:06.025Z,705.20
2017-12-24T03:58:33.814Z,701.90
2017-12-24T04:01:01.475Z,713.40
2017-12-24T04:03:29.187Z,705.30
2017-12-24T04:05:56.921Z,692.40
2017-12-24T04:08:25.470Z,686.53
2017-12-24T04:10:53.249Z,851.03
2017-12-24T04:13:21.127Z,976.33
2017-12-24T04:15:48.877Z,999.90
2017-12-24T04:18:16.610Z,849.77
2017-12-24T04:20:44.320Z,999.90
2017-12-24T04:23:12.145Z,988.40
2017-12-24T04:25:40.445Z,999.90
2017-12-24T04:28:08.141Z,999.90
2017-12-24T04:30:36.629Z,999.90
2017-12-24T04:33:04.781Z,999.90
2017-12-24T04:35:32.583Z,999.90
2017-12-24T04:38:00.363Z,999.90
2017-12-24T04:40:28.183Z,999.90
2017-12-24T04:42:56.742Z,716.60
2017-12-24T04:45:24.454Z,715.60
2017-12-24T04:47:52.145Z,999.90
2017-12-24T04:50:20.836Z,999.90
2017-12-24T04:52:48.493Z,999.90
2017-12-24T04:55:16.221Z,999.90
2017-12-24T04:57:44.081Z,999.90
2017-12-24T05:00:11.915Z,999.90
2017-12-24T05:02:39.653Z,989.10
2017-12-24T05:05:07.476Z,723.57
2017-12-24T05:07:35.238Z,725.10
2017-12-24T05:10:03.711Z,861.50
2017-12-24T05:12:32.177Z,999.90
2017-12-24T05:15:00.638Z,999.90
2017-12-24T05:17:28.336Z,999.90
2017-12-24T05:19:56.922Z,999.90
2017-12-24T05:22:25.405Z,999.90
2017-12-24T05:24:54.060Z,999.90
2017-12-24T05:27:21.799Z,999.90
2017-12-24T05:29:49.635Z,999.90
2017-12-24T05:32:17.312Z,999.90
2017-12-24T05:34:45.202Z,999.90
2017-12-24T05:37:13.001Z,999.90
2017-12-24T05:39:41.517Z,959.60
2017-12-24T05:42:09.348Z,999.90
2017-12-24T05:44:37.196Z,999.90
2017-12-24T05:47:05.034Z,999.90
2017-12-24T05:49:34.087Z,999.90
2017-12-24T05:52:01.820Z,999.90
2017-12-24T05:54:29.599Z,999.90
2017-12-24T05:56:57.446Z,999.90
2017-12-24T05:59:25.144Z,999.90
2017-12-24T06:01:53.721Z,999.90
2017-12-24T06:04:21.444Z,999.90
2017-12-24T06:06:49.241Z,999.90
2017-12-24T06:09:17.009Z,999.90
2017-12-24T06:11:44.878Z,999.90
2017-12-24T06:14:12.754Z,999.90
2017-12-24T06:16:40.498Z,999.90
2017-12-24T06:19:08.198Z,999.90
2017-12-24T06:21:35.951Z,999.90
2017-12-24T06:24:04.532Z,999.90
2017-12-24T06:26:33.013Z,999.90
2017-12-24T06:29:00.859Z,999.90
2017-12-24T06:31:28.589Z,728.87
2017-12-24T06:33:56.402Z,736.80
2017-12-24T06:36:24.961Z,711.13
2017-12-24T06:38:52.717Z,718.00
2017-12-24T06:41:20.492Z,711.33
2017-12-24T06:43:48.277Z,721.30
2017-12-24T06:46:16.067Z,720.37
2017-12-24T06:48:43.841Z,726.73
2017-12-24T06:51:12.427Z,747.00
2017-12-24T06:53:40.289Z,736.37
2017-12-24T06:56:08.059Z,727.47
2017-12-24T06:58:35.835Z,923.97
2017-12-24T07:01:03.587Z,999.90
2017-12-24T07:03:31.363Z,999.90
2017-12-24T07:05:59.115Z,999.90
2017-12-24T07:08:26.927Z,999.90
2017-12-24T07:10:55.241Z,999.90
2017-12-24T07:13:24.483Z,999.90
2017-12-24T07:15:52.254Z,999.90
2017-12-24T07:18:20.027Z,988.97
2017-12-24T07:20:47.811Z,694.87
2017-12-24T07:23:15.536Z,684.03
2017-12-24T07:25:43.411Z,686.30
2017-12-24T07:28:12.045Z,685.37
2017-12-24T07:30:40.569Z,675.67
2017-12-24T07:33:08.311Z,691.00
2017-12-24T07:35:36.243Z,689.40
2017-12-24T07:38:04.041Z,698.23
2017-12-24T07:40:31.831Z,710.97
2017-12-24T07:42:59.619Z,724.07
2017-12-24T07:45:27.385Z,717.83
2017-12-24T07:47:55.907Z,712.47
2017-12-24T07:50:23.683Z,718.07
2017-12-24T07:52:51.522Z,719.07
2017-12-24T07:55:19.293Z,710.73
2017-12-24T07:57:47.305Z,711.70
2017-12-24T08:00:15.088Z,727.40
2017-12-24T08:02:42.900Z,745.80
2017-12-24T08:05:11.229Z,728.03
2017-12-24T08:07:39.845Z,718.33
2017-12-24T08:10:07.959Z,738.23
2017-12-24T08:12:35.668Z,725.73
2017-12-24T08:15:03.400Z,745.27
2017-12-24T08:17:31.260Z,736.10
2017-12-24T08:19:58.986Z,749.90
2017-12-24T08:22:26.818Z,750.67
2017-12-24T08:24:54.610Z,739.93
2017-12-24T08:27:23.369Z,729.40
2017-12-24T08:29:51.197Z,884.30
2017-12-24T08:32:19.069Z,999.90
2017-12-24T08:34:46.854Z,999.90
2017-12-24T08:37:14.550Z,999.90
2017-12-24T08:39:43.123Z,999.90
2017-12-24T08:42:10.909Z,999.90
2017-12-24T08:44:39.472Z,999.90
2017-12-24T08:47:07.189Z,751.37
2017-12-24T08:49:35.026Z,999.90
2017-12-24T08:52:02.887Z,999.90
2017-12-24T08:54:32.195Z,999.90
2017-12-24T08:57:00.029Z,999.90
2017-12-24T08:59:27.827Z,999.90
2017-12-24T09:01:56.717Z,999.90
2017-12-24T09:04:24.504Z,999.90
2017-12-24T09:06:52.339Z,999.90
2017-12-24T09:09:20.902Z,999.90
2017-12-24T09:11:48.771Z,999.90
2017-12-24T09:14:17.082Z,999.90
2017-12-24T09:16:44.903Z,999.90
2017-12-24T09:19:12.677Z,999.90
2017-12-24T09:21:41.276Z,999.90
2017-12-24T09:24:09.106Z,999.90
2017-12-24T09:26:36.834Z,999.90
2017-12-24T09:29:05.414Z,999.90
2017-12-24T09:31:33.219Z,683.13
2017-12-24T09:34:02.151Z,999.90
2017-12-24T09:36:30.722Z,999.90
2017-12-24T09:38:59.301Z,999.90
2017-12-24T09:41:27.037Z,999.90
2017-12-24T09:43:54.827Z,705.77
2017-12-24T09:46:22.710Z,698.40
2017-12-24T09:48:51.265Z,697.87
2017-12-24T09:51:19.050Z,697.87
2017-12-24T09:53:46.788Z,999.90
2017-12-24T09:56:14.634Z,999.90
2017-12-24T09:58:42.476Z,999.90
2017-12-24T10:01:10.243Z,999.90
2017-12-24T10:03:38.869Z,694.23
2017-12-24T10:06:06.662Z,694.93
2017-12-24T10:08:34.437Z,704.07
2017-12-24T10:11:03.036Z,691.67
2017-12-24T10:13:30.861Z,707.33
2017-12-24T10:15:58.601Z,709.97
2017-12-24T10:18:26.328Z,718.33
2017-12-24T10:20:54.141Z,702.57
2017-12-24T10:23:21.865Z,690.97
2017-12-24T10:25:49.651Z,690.27
2017-12-24T10:28:17.464Z,702.90
2017-12-24T10:30:45.286Z,707.23
2017-12-24T10:33:13.015Z,700.53
2017-12-24T10:35:41.136Z,710.27
2017-12-24T10:38:08.836Z,712.97
2017-12-24T10:40:37.296Z,710.13
2017-12-24T10:43:05.082Z,731.07
2017-12-24T10:45:32.908Z,999.90
2017-12-24T10:48:00.805Z,999.90
2017-12-24T10:50:28.522Z,999.90
2017-12-24T10:52:56.230Z,767.37
2017-12-24T10:55:24.826Z,727.47
2017-12-24T10:57:53.366Z,956.37
2017-12-24T11:00:21.178Z,999.90
2017-12-24T11:02:48.892Z,999.90
2017-12-24T11:05:16.661Z,999.90
2017-12-24T11:07:44.380Z,999.90
2017-12-24T11:10:12.109Z,999.90
2017-12-24T11:12:39.826Z,999.90
2017-12-24T11:15:07.540Z,999.90
2017-12-24T11:17:36.021Z,826.10
2017-12-24T11:20:04.366Z,999.90
2017-12-24T11:22:32.061Z,999.90
2017-12-24T11:59:27.071Z,729.78
2017-12-24T12:01:54.802Z,697.33
2017-12-24T12:04:23.446Z,696.17
2017-12-24T12:06:52.010Z,697.73
2017-12-24T12:09:19.694Z,703.23
2017-12-24T12:11:48.329Z,702.20
2017-12-24T12:14:16.056Z,710.37
2017-12-24T12:16:44.561Z,709.53
2017-12-24T12:19:13.120Z,713.53
2017-12-24T12:21:40.976Z,714.10
2017-12-24T12:24:08.733Z,712.07
2017-12-24T12:26:37.302Z,718.13
2017-12-24T12:29:05.161Z,713.97
2017-12-24T12:43:00.986Z,705.43
2017-12-24T12:45:29.634Z,709.87
2017-12-24T12:47:57.330Z,707.20
2017-12-24T12:50:25.864Z,710.00
2017-12-24T12:52:53.722Z,714.50
2017-12-24T12:55:21.434Z,715.13
2017-12-24T12:57:50.068Z,713.87
2017-12-24T13:00:18.187Z,714.53
2017-12-24T13:02:45.911Z,706.57
2017-12-24T13:05:13.963Z,714.03
2017-12-24T13:07:41.896Z,713.70
2017-12-24T13:10:09.648Z,697.33
2017-12-24T13:12:37.390Z,709.50
2017-12-24T13:15:05.933Z,712.47
2017-12-24T13:17:33.718Z,709.83
2017-12-24T13:20:01.460Z,702.30
2017-12-24T13:22:30.550Z,704.97
2017-12-24T13:24:58.324Z,707.27
2017-12-24T13:27:26.108Z,705.23
2017-12-24T13:29:53.840Z,713.10
2017-12-24T13:32:22.408Z,708.13
2017-12-24T13:34:50.269Z,683.27
2017-12-24T13:37:19.187Z,705.63
2017-12-24T13:39:46.924Z,698.77
2017-12-24T13:42:14.875Z,701.37
2017-12-24T13:44:42.628Z,706.87
2017-12-24T13:47:10.430Z,698.23
2017-12-24T13:49:39.004Z,701.97
2017-12-24T13:52:06.722Z,708.57
2017-12-24T13:54:34.538Z,690.07
2017-12-24T13:57:03.066Z,706.50
2017-12-24T13:59:30.790Z,710.00
2017-12-24T14:01:59.273Z,700.83
2017-12-24T14:04:27.868Z,691.50
2017-12-24T14:06:55.648Z,709.73
2017-12-24T14:09:23.410Z,700.93
2017-12-24T14:11:51.254Z,705.00
2017-12-24T14:14:19.774Z,695.37
2017-12-24T14:16:47.536Z,696.40
2017-12-24T14:19:15.294Z,691.07
2017-12-24T14:21:44.238Z,697.63
2017-12-24T14:24:12.055Z,697.70
2017-12-24T14:26:39.942Z,711.53
2017-12-24T14:29:08.010Z,693.23
2017-12-24T14:31:35.838Z,684.47
2017-12-24T14:34:03.658Z,695.77
2017-12-24T14:36:31.529Z,703.87
2017-12-24T14:38:59.266Z,691.63
2017-12-24T14:41:27.018Z,705.30
2017-12-24T14:43:54.872Z,710.23
2017-12-24T14:46:22.720Z,705.10
2017-12-24T14:48:51.624Z,699.13
2017-12-24T14:51:19.488Z,699.73
2017-12-24T14:53:47.299Z,700.83
2017-12-24T14:56:15.155Z,703.53
2017-12-24T14:58:42.839Z,707.57
2017-12-24T15:01:10.767Z,712.27
2017-12-24T15:03:38.528Z,692.63
2017-12-24T15:06:06.278Z,689.53
2017-12-24T15:08:34.038Z,698.03
2017-12-24T15:11:02.534Z,698.27
2017-12-24T15:13:30.275Z,681.87
2017-12-24T15:15:58.795Z,702.93
2017-12-24T15:18:26.966Z,674.67
2017-12-24T15:20:54.844Z,680.80
2017-12-24T15:23:22.667Z,701.90
2017-12-24T15:25:50.512Z,684.60
2017-12-24T15:28:18.284Z,699.53
2017-12-24T15:30:46.008Z,684.03
2017-12-24T15:33:13.784Z,700.67
2017-12-24T15:35:42.820Z,705.47
2017-12-24T15:38:11.326Z,698.13
2017-12-24T15:40:39.065Z,684.03
2017-12-24T15:45:17.364Z,687.57
2017-12-24T15:47:43.832Z,712.67
2017-12-24T15:54:27.167Z,110.17
2017-12-24T15:56:54.856Z,122.37
2017-12-24T15:59:22.650Z,90.10
2017-12-24T16:03:50.787Z,686.90
2017-12-24T16:06:23.000Z,679.10
2017-12-24T16:08:50.833Z,687.27
2017-12-24T16:11:18.587Z,728.45
2017-12-24T16:13:48.247Z,711.50
2017-12-24T16:16:16.114Z,708.47
2017-12-24T16:18:44.351Z,710.70
2017-12-24T16:21:12.101Z,709.53
2017-12-24T16:23:39.928Z,704.80
2017-12-24T16:26:07.656Z,714.93
2017-12-24T16:28:35.350Z,714.83
2017-12-24T16:31:03.142Z,700.63
2017-12-24T16:33:31.921Z,706.63
2017-12-24T16:35:59.637Z,714.17
2017-12-24T16:38:27.498Z,714.07
2017-12-24T16:40:55.282Z,712.83
2017-12-24T16:43:23.025Z,711.50
2017-12-24T16:45:51.645Z,710.20
2017-12-24T16:48:19.452Z,718.93
2017-12-24T16:50:47.174Z,716.63
2017-12-24T16:53:14.921Z,707.40
2017-12-24T16:55:42.641Z,707.73
2017-12-24T16:58:11.140Z,702.10
2017-12-24T17:00:38.828Z,707.87
2017-12-24T17:03:06.694Z,704.90
2017-12-24T17:05:34.426Z,702.27
2017-12-24T17:08:02.142Z,707.20
2017-12-24T17:10:30.042Z,710.83
2017-12-24T17:12:58.841Z,694.80
2017-12-24T17:15:26.724Z,700.53
2017-12-24T17:17:54.437Z,705.23
2017-12-24T17:20:22.247Z,707.67
2017-12-24T17:22:49.998Z,709.53
2017-12-24T17:25:17.758Z,707.73
2017-12-24T17:27:45.604Z,710.00
2017-12-24T17:30:13.368Z,705.23
2017-12-24T17:32:41.107Z,708.97
2017-12-24T17:35:08.904Z,721.50
2017-12-24T17:37:37.427Z,711.17
2017-12-24T17:40:05.298Z,712.87
2017-12-24T17:42:33.046Z,696.23
2017-12-24T17:45:00.916Z,714.90
2017-12-24T17:47:28.665Z,712.80
2017-12-24T17:49:56.506Z,707.37
2017-12-24T17:52:24.194Z,700.77
2017-12-24T17:54:52.060Z,698.07
2017-12-24T17:57:20.187Z,707.87
2017-12-24T17:59:49.380Z,701.97
2017-12-24T18:02:17.154Z,708.53
2017-12-24T18:04:44.915Z,709.33
2017-12-24T18:07:12.650Z,714.33
2017-12-24T18:09:40.440Z,713.57
2017-12-24T18:12:09.134Z,713.73
2017-12-24T18:14:36.900Z,702.87
2017-12-24T18:17:05.852Z,704.97
2017-12-24T18:19:34.091Z,713.17
2017-12-24T18:22:01.992Z,708.00
2017-12-24T18:24:30.461Z,714.90
2017-12-24T18:26:58.320Z,712.13
2017-12-24T18:29:26.301Z,708.57
2017-12-24T18:31:54.571Z,710.93
2017-12-24T18:34:22.458Z,711.27
2017-12-24T18:36:51.198Z,714.07
2017-12-24T18:39:19.038Z,699.53
2017-12-24T18:41:47.572Z,707.47
2017-12-24T18:44:15.451Z,703.17
2017-12-24T18:46:43.962Z,698.57
2017-12-24T18:49:11.856Z,692.20
2017-12-24T18:51:40.444Z,701.23
2017-12-24T18:54:09.135Z,695.40
2017-12-24T18:56:36.852Z,680.30
2017-12-24T18:59:04.588Z,687.50
2017-12-24T19:01:32.351Z,706.30
2017-12-24T19:04:00.181Z,704.63
2017-12-24T19:06:28.154Z,701.87
2017-12-24T19:08:56.626Z,702.10
2017-12-24T19:11:24.494Z,703.10
2017-12-24T19:13:52.223Z,702.40
2017-12-24T19:16:20.014Z,701.87
2017-12-24T19:18:47.740Z,697.87
2017-12-24T19:21:15.950Z,751.33
2017-12-24T19:23:43.722Z,710.53
2017-12-24T19:26:11.518Z,703.77
2017-12-24T19:28:40.288Z,763.03
2017-12-24T19:31:08.018Z,762.67
2017-12-24T19:33:35.731Z,715.30
2017-12-24T19:36:04.308Z,707.97
2017-12-24T19:38:32.896Z,687.27
2017-12-24T19:41:01.562Z,694.27
2017-12-24T19:43:29.271Z,694.70
2017-12-24T19:45:57.050Z,693.93
2017-12-24T19:48:24.907Z,696.83
2017-12-24T19:50:52.591Z,706.70
2017-12-24T19:53:20.361Z,686.47
2017-12-24T19:55:48.861Z,704.17
2017-12-24T19:58:16.618Z,680.37
2017-12-24T20:00:44.503Z,690.10
2017-12-24T20:03:12.270Z,691.03
2017-12-24T20:05:40.083Z,698.83
2017-12-24T20:08:07.910Z,703.03
2017-12-24T20:10:35.601Z,696.97
2017-12-24T20:13:03.548Z,699.43
2017-12-24T20:15:31.360Z,690.13
2017-12-24T20:17:59.759Z,703.77
2017-12-24T20:20:27.629Z,691.57
2017-12-24T20:22:55.368Z,699.70
2017-12-24T20:25:23.225Z,689.17
2017-12-24T20:27:50.921Z,745.05
2017-12-24T20:30:18.712Z,697.47
2017-12-24T20:32:47.249Z,694.37
2017-12-24T20:35:15.089Z,691.10
2017-12-24T20:37:42.815Z,689.83
2017-12-24T20:40:11.295Z,711.60
2017-12-24T20:42:39.807Z,711.93
2017-12-24T20:45:07.564Z,707.03
2017-12-24T20:47:36.099Z,713.20
2017-12-24T20:50:05.185Z,703.53
2017-12-24T20:52:33.113Z,710.13
2017-12-24T20:55:00.876Z,708.87
2017-12-24T20:57:31.232Z,701.30
2017-12-24T20:59:58.973Z,704.70
2017-12-24T21:02:26.789Z,693.13
2017-12-24T21:04:54.600Z,699.17
2017-12-24T21:07:22.350Z,705.10
2017-12-24T21:09:50.059Z,700.30
2017-12-24T21:12:17.793Z,710.73
2017-12-24T21:14:45.606Z,679.80
2017-12-24T21:17:13.313Z,680.57
2017-12-24T21:19:41.087Z,693.30
2017-12-24T21:22:08.830Z,686.70
2017-12-24T21:24:37.302Z,690.27
2017-12-24T21:27:05.851Z,687.33
2017-12-24T21:29:34.415Z,707.93
2017-12-24T21:32:02.999Z,692.53
2017-12-24T21:34:30.727Z,694.27
2017-12-24T21:36:58.504Z,687.50
2017-12-24T21:39:26.351Z,713.07
2017-12-24T21:41:54.188Z,696.80
2017-12-24T21:44:21.947Z,703.00
2017-12-24T21:46:49.755Z,700.17
2017-12-24T21:49:18.275Z,704.73
2017-12-24T21:51:46.109Z,689.03
2017-12-24T21:54:14.588Z,699.80
2017-12-24T21:56:42.341Z,697.13
2017-12-24T21:59:10.833Z,712.03
2017-12-24T22:01:39.465Z,712.67
2017-12-24T22:04:07.995Z,688.70
2017-12-24T22:06:36.509Z,706.93
2017-12-24T22:09:04.399Z,691.50
2017-12-24T22:11:32.161Z,703.87
2017-12-24T22:14:01.365Z,699.63
2017-12-24T22:16:29.149Z,689.97
2017-12-24T22:18:57.605Z,691.57
2017-12-24T22:21:25.281Z,698.87
2017-12-24T22:23:52.959Z,698.10
2017-12-24T22:26:20.649Z,709.37
2017-12-24T22:28:48.454Z,690.63
2017-12-24T22:31:16.124Z,711.20
2017-12-24T22:33:43.839Z,691.13
2017-12-24T22:36:11.685Z,701.63
2017-12-24T22:38:40.931Z,700.50
2017-12-24T22:41:09.039Z,701.80
2017-12-24T22:43:36.753Z,698.33
2017-12-24T22:46:04.449Z,703.83
2017-12-24T22:48:32.140Z,702.97
2017-12-24T22:51:00.701Z,694.67
2017-12-24T22:53:28.473Z,706.97
2017-12-24T22:55:56.305Z,698.43
2017-12-24T22:58:24.101Z,697.57
2017-12-24T23:00:51.933Z,707.90
2017-12-24T23:03:19.713Z,697.67
2017-12-24T23:05:47.589Z,693.53
2017-12-24T23:08:15.300Z,706.93
2017-12-24T23:10:43.003Z,712.43
2017-12-24T23:13:10.702Z,713.70
2017-12-24T23:15:38.575Z,709.13
2017-12-24T23:18:06.304Z,716.93
2017-12-24T23:20:34.095Z,720.97
2017-12-24T23:23:01.779Z,721.90
2017-12-24T23:25:30.322Z,716.53
2017-12-24T23:27:58.078Z,694.03
2017-12-24T23:30:25.952Z,697.50
2017-12-24T23:32:53.669Z,700.50
2017-12-24T23:35:21.419Z,699.53
2017-12-24T23:37:49.879Z,723.17
2017-12-24T23:40:17.594Z,702.33
2017-12-24T23:42:45.273Z,711.40
2017-12-24T23:45:12.982Z,719.77
2017-12-24T23:47:41.457Z,709.70
2017-12-24T23:50:09.993Z,716.87
2017-12-24T23:52:37.715Z,708.97
2017-12-24T23:55:06.199Z,721.17
2017-12-24T23:57:34.693Z,699.83
